createdAt,value
2023-01-25T00:02:59.599Z,36.60
2023-01-25T00:08:21.327Z,42.80
2023-01-25T00:13:42.243Z,36.60
2023-01-25T00:19:03.157Z,41.22
2023-01-25T00:24:25.912Z,36.38
2023-01-25T00:29:47.090Z,33.42
2023-01-25T00:35:12.469Z,30.00
2023-01-25T00:40:33.383Z,28.45
2023-01-25T00:46:00.714Z,38.45
2023-01-25T00:51:22.377Z,27.65
2023-01-25T00:56:43.396Z,42.63
2023-01-25T01:02:04.419Z,38.65
2023-01-25T01:07:25.301Z,40.10
2023-01-25T01:12:46.053Z,40.38
2023-01-25T01:18:06.897Z,38.78
2023-01-25T01:23:31.719Z,38.03
2023-01-25T01:28:52.389Z,39.08
2023-01-25T01:34:14.917Z,37.70
2023-01-25T01:39:35.875Z,43.03
2023-01-25T01:44:56.733Z,41.13
2023-01-25T01:50:24.081Z,32.28
2023-01-25T01:55:47.461Z,34.17
2023-01-25T02:01:08.201Z,36.88
2023-01-25T02:06:39.701Z,35.33
2023-01-25T02:12:00.971Z,38.55
2023-01-25T02:17:29.981Z,38.15
2023-01-25T02:23:18.225Z,37.40
2023-01-25T02:28:39.117Z,36.67
2023-01-25T02:33:59.866Z,37.75
2023-01-25T02:39:21.195Z,34.65
2023-01-25T02:44:44.225Z,37.40
2023-01-25T02:50:05.771Z,39.95
2023-01-25T02:55:26.868Z,39.40
2023-01-25T03:00:47.756Z,39.13
2023-01-25T03:06:08.841Z,44.05
2023-01-25T03:11:29.775Z,42.35
2023-01-25T03:16:52.533Z,39.80
2023-01-25T03:22:16.277Z,40.63
2023-01-25T03:27:37.396Z,40.45
2023-01-25T03:33:02.743Z,41.22
2023-01-25T03:38:23.944Z,41.88
2023-01-25T03:43:45.251Z,39.35
2023-01-25T03:49:10.111Z,43.83
2023-01-25T03:54:31.913Z,42.85
2023-01-25T03:59:52.641Z,34.58
2023-01-25T04:05:15.467Z,40.42
2023-01-25T04:10:36.766Z,39.03
2023-01-25T04:15:59.070Z,41.95
2023-01-25T04:21:42.489Z,40.95
2023-01-25T04:27:03.533Z,41.70
2023-01-25T04:32:28.766Z,36.78
2023-01-25T04:37:56.445Z,38.15
2023-01-25T04:43:20.918Z,35.88
2023-01-25T04:48:44.032Z,38.97
2023-01-25T04:54:05.282Z,36.60
2023-01-25T04:59:28.085Z,41.22
2023-01-25T05:04:49.374Z,42.95
2023-01-25T05:10:12.297Z,37.20
2023-01-25T05:15:42.026Z,37.38
2023-01-25T05:21:02.660Z,38.25
2023-01-25T05:26:41.861Z,36.15
2023-01-25T05:32:05.870Z,36.43
2023-01-25T05:37:26.665Z,45.72
2023-01-25T05:42:59.956Z,40.90
2023-01-25T05:48:23.150Z,42.95
2023-01-25T05:53:44.398Z,40.38
2023-01-25T05:59:05.414Z,40.47
2023-01-25T06:04:26.248Z,33.30
2023-01-25T06:09:47.436Z,38.58
2023-01-25T06:15:08.768Z,34.83
2023-01-25T06:20:30.464Z,36.65
2023-01-25T06:26:06.005Z,35.90
2023-01-25T06:31:26.810Z,35.83
2023-01-25T06:36:48.590Z,40.75
2023-01-25T06:42:09.640Z,41.63
2023-01-25T06:47:30.264Z,42.47
2023-01-25T06:52:54.916Z,38.45
2023-01-25T06:58:15.944Z,41.30
2023-01-25T07:03:36.620Z,38.17
2023-01-25T07:09:05.935Z,33.85
2023-01-25T07:14:26.654Z,38.47
2023-01-25T07:19:48.020Z,44.00
2023-01-25T07:25:09.383Z,43.55
2023-01-25T07:30:30.500Z,45.38
2023-01-25T07:35:51.369Z,41.65
2023-01-25T07:41:13.108Z,39.17
2023-01-25T07:46:34.081Z,37.28
2023-01-25T07:51:54.838Z,41.40
2023-01-25T07:57:15.415Z,39.97
2023-01-25T08:02:36.347Z,37.80
2023-01-25T08:07:56.987Z,31.90
2023-01-25T08:13:17.821Z,34.83
2023-01-25T08:18:38.502Z,30.52
2023-01-25T08:24:00.981Z,32.80
2023-01-25T08:29:21.716Z,32.88
2023-01-25T08:34:42.490Z,26.73
2023-01-25T08:40:04.038Z,29.73
2023-01-25T08:45:25.002Z,28.10
2023-01-25T08:50:47.416Z,29.90
2023-01-25T08:56:14.279Z,28.20
2023-01-25T09:01:35.228Z,29.95
2023-01-25T09:06:56.173Z,24.45
2023-01-25T09:12:16.866Z,29.98
2023-01-25T09:17:39.132Z,24.17
2023-01-25T09:22:59.755Z,27.48
2023-01-25T09:28:20.457Z,23.88
2023-01-25T09:33:42.052Z,26.17
2023-01-25T09:39:03.508Z,20.17
2023-01-25T09:44:38.150Z,19.13
2023-01-25T09:50:20.174Z,17.80
2023-01-25T09:55:42.053Z,12.82
2023-01-25T10:01:19.563Z,15.02
2023-01-25T10:06:59.791Z,14.45
2023-01-25T10:12:23.963Z,12.65
2023-01-25T10:17:45.534Z,17.92
2023-01-25T10:23:12.343Z,16.25
2023-01-25T10:28:52.283Z,13.80
2023-01-25T10:34:19.147Z,16.73
2023-01-25T10:39:49.495Z,16.73
2023-01-25T10:50:46.336Z,17.30
2023-01-25T10:56:19.717Z,14.70
2023-01-25T11:01:40.966Z,10.23
2023-01-25T11:07:06.179Z,10.27
2023-01-25T11:12:27.271Z,12.88
2023-01-25T11:18:05.419Z,13.25
2023-01-25T11:23:26.974Z,18.25
2023-01-25T11:28:49.158Z,18.08
2023-01-25T11:34:16.055Z,15.13
2023-01-25T11:39:39.980Z,18.83
2023-01-25T11:45:23.244Z,17.70
2023-01-25T11:51:01.958Z,15.00
2023-01-25T11:56:49.163Z,17.45
2023-01-25T12:02:31.894Z,14.70
2023-01-25T12:07:58.828Z,13.75
2023-01-25T12:14:02.149Z,14.80
2023-01-25T12:19:34.977Z,13.90
2023-01-25T12:24:58.849Z,19.70
2023-01-25T12:30:55.602Z,13.68
2023-01-25T12:36:28.900Z,12.60
2023-01-25T12:42:02.603Z,16.60
2023-01-25T12:47:58.782Z,16.85
2023-01-25T12:53:42.481Z,24.00
2023-01-25T12:59:14.703Z,17.75
2023-01-25T13:04:53.377Z,15.07
2023-01-25T13:10:21.057Z,13.15
2023-01-25T13:15:44.399Z,14.40
2023-01-25T13:21:11.536Z,12.88
2023-01-25T13:26:47.264Z,14.45
2023-01-25T13:32:12.522Z,13.55
2023-01-25T13:37:34.662Z,14.63
2023-01-25T13:43:04.195Z,13.80
2023-01-25T13:48:27.826Z,19.25
2023-01-25T13:53:56.788Z,16.20
2023-01-25T13:59:25.883Z,15.63
2023-01-25T14:04:49.674Z,17.20
2023-01-25T14:10:15.709Z,14.70
2023-01-25T14:15:36.675Z,15.38
2023-01-25T14:21:18.431Z,17.25
2023-01-25T14:26:42.057Z,19.75
2023-01-25T14:32:03.700Z,16.63
2023-01-25T14:37:24.564Z,17.80
2023-01-25T14:42:45.354Z,15.98
2023-01-25T14:48:06.108Z,16.30
2023-01-25T14:53:26.888Z,19.10
2023-01-25T14:58:50.902Z,21.25
2023-01-25T15:04:19.208Z,25.83
2023-01-25T15:09:44.556Z,21.13
2023-01-25T15:15:20.870Z,22.67
2023-01-25T15:20:41.950Z,23.75
2023-01-25T15:26:11.979Z,15.98
2023-01-25T15:31:36.152Z,20.73
2023-01-25T15:36:57.246Z,23.02
2023-01-25T15:42:17.771Z,26.52
2023-01-25T15:47:39.181Z,22.30
2023-01-25T15:53:00.439Z,15.05
2023-01-25T15:58:26.076Z,17.35
2023-01-25T16:03:47.443Z,23.17
2023-01-25T16:09:20.322Z,16.40
2023-01-25T16:14:41.066Z,12.73
2023-01-25T16:20:01.863Z,17.33
2023-01-25T16:25:22.916Z,14.32
2023-01-25T16:30:46.905Z,18.45
2023-01-25T16:36:15.976Z,17.33
2023-01-25T16:41:36.942Z,21.10
2023-01-25T16:46:58.083Z,13.73
2023-01-25T16:52:18.803Z,20.13
2023-01-25T16:57:43.671Z,24.98
2023-01-25T17:03:05.115Z,13.23
2023-01-25T17:08:25.726Z,16.30
2023-01-25T17:13:54.520Z,14.70
2023-01-25T17:19:17.073Z,23.67
2023-01-25T17:24:38.392Z,16.98
2023-01-25T17:29:59.385Z,15.00
2023-01-25T17:35:20.159Z,16.55
2023-01-25T17:40:40.967Z,16.10
2023-01-25T17:46:11.932Z,16.00
2023-01-25T17:51:34.252Z,19.10
2023-01-25T17:56:55.121Z,19.50
2023-01-25T18:02:16.004Z,13.35
2023-01-25T18:07:36.747Z,14.00
2023-01-25T18:13:04.524Z,15.23
2023-01-25T18:18:25.334Z,14.43
2023-01-25T18:23:47.363Z,15.95
2023-01-25T18:29:08.247Z,13.95
2023-01-25T18:34:28.896Z,15.00
2023-01-25T18:39:52.522Z,21.30
2023-01-25T18:45:14.682Z,20.30
2023-01-25T18:50:39.097Z,16.63
2023-01-25T18:56:04.528Z,16.95
2023-01-25T19:01:25.508Z,17.45
2023-01-25T19:06:46.888Z,18.98
2023-01-25T19:12:07.933Z,22.75
2023-01-25T19:17:28.584Z,21.70
2023-01-25T19:22:49.521Z,23.83
2023-01-25T19:28:10.675Z,22.08
2023-01-25T19:33:31.363Z,21.02
2023-01-25T19:38:52.650Z,21.98
2023-01-25T19:44:14.388Z,19.48
2023-01-25T19:49:35.298Z,25.45
2023-01-25T19:54:55.897Z,29.50
2023-01-25T20:00:16.691Z,47.00
2023-01-25T20:05:37.263Z,28.92
2023-01-25T20:11:02.560Z,14.07
2023-01-25T20:16:25.146Z,25.30
2023-01-25T20:21:46.074Z,20.90
2023-01-25T20:27:07.476Z,14.85
2023-01-25T20:32:33.167Z,23.42
2023-01-25T20:37:54.359Z,26.30
2023-01-25T20:43:15.190Z,26.05
2023-01-25T20:48:36.469Z,24.10
2023-01-25T20:53:59.827Z,25.15
2023-01-25T20:59:20.595Z,25.70
2023-01-25T21:04:41.246Z,26.20
2023-01-25T21:10:01.982Z,25.60
2023-01-25T21:15:25.326Z,28.40
2023-01-25T21:20:46.596Z,23.55
2023-01-25T21:26:10.356Z,27.27
2023-01-25T21:31:36.530Z,29.65
2023-01-25T21:36:57.420Z,29.85
2023-01-25T21:42:18.766Z,29.67
2023-01-25T21:47:39.694Z,30.98
2023-01-25T21:53:00.822Z,26.05
2023-01-25T21:58:21.572Z,29.10
2023-01-25T22:03:42.261Z,25.02
2023-01-25T22:09:03.338Z,18.80
2023-01-25T22:14:24.315Z,23.23
2023-01-25T22:19:44.951Z,24.38
2023-01-25T22:25:06.028Z,22.73
2023-01-25T22:30:27.080Z,19.45
2023-01-25T22:35:47.805Z,23.90
2023-01-25T22:41:20.216Z,27.58
2023-01-25T22:46:41.138Z,23.73
2023-01-25T22:52:01.921Z,28.13
2023-01-25T22:57:22.762Z,21.70
2023-01-25T23:02:43.662Z,23.20
2023-01-25T23:08:04.665Z,22.77
2023-01-25T23:13:25.646Z,21.80
2023-01-25T23:18:52.201Z,25.20
2023-01-25T23:24:13.209Z,22.58
2023-01-25T23:29:33.859Z,23.45
2023-01-25T23:34:54.518Z,24.75
2023-01-25T23:40:16.076Z,26.48
2023-01-25T23:45:36.893Z,24.23
2023-01-25T23:50:58.553Z,23.65
2023-01-25T23:56:21.583Z,28.40
